Aérodrome :
LOGIN :

S'inscrire | Disclaimer

   EN    FR    IT 

 










Légende :    VFR   VFR Marginal   IFR   IFR Intensif   IFR Très Intensif
Visi : 
Plafond : 
>= 8 km
>= 3000ft
5 à 8 km
1000 à 3000 ft
1500m à 5 km
500 à 1000 ft
800 à 1500m
200 à 500 ft
< 800m
< 200 ft
Symboles :   Orages  Brouillard  Fortes neiges  Fortes précipitations  Vent > 20 kt
SIGMETs :   Divers  Orages  Givrage  Turbulence  Onde Orograph.  Cendres Volcan.






- Altitude de l'aérodrome : 84 ft


LFBC - Cazaux

DERNIER METAR :
  • 122200Z AUTO VRB02KT CAVOK 19/18 Q1013

METARs EXPIRÉS :
  • 122130Z AUTO 00000KT CAVOK 19/18 Q1012
  • 122100Z AUTO VRB04KT 9999 TS FEW026/// BKN110/// BKN250/// ///CB 19/17 Q1012
  • 122030Z AUTO 07013KT 9999 -TSRA SCT030/// BKN047/// BKN060/// ///CB 19/17 Q1013
  • 122000Z AUTO VRB03KT 9999 SCT040/// BKN062/// BKN092/// ///CB 24/18 Q1012
  • 121930Z AUTO 13005KT CAVOK 25/18 Q1011
  • 121900Z AUTO 00000KT CAVOK 27/16 Q1011

TAF TAF LFBC
Valide du 12 à 15h jusqu'au 13 à 15h UTC


121400Z 1215/1315 27005KT CAVOK
TEMPO 1215/1315 VRB10G20KT 4000 SHRA BKN060CB
PROB40
TEMPO 1217/1306 VRB20G30KT 3000 TSRA
BECMG 1223/1301 BKN010
BECMG 1306/1308 BKN015



MET'MAP, la Météo Aéronautique d'un coup d'oeil ! - Copyright ORBIFLY Décembre 2007 - Disclaimer

ORBIFLY MET'MAP TEAM :

Programmation & Développement : Alexandra Zaïnal
Sur une idée originale de : Baudouin d'Aumeries
Assistance à la programmation : Marc-Olivier Méhu
Soutien technique & logistique : Manuel Goepfert

Contact : metmap@orbifly.com




SOURCES & CREDITS :

   NOAA